sensor_id;sensor_type;location;lat;lon;timestamp;temperature;humidity
24148;DHT22;12309;51.450;-2.624;2024-01-15T00:01:47;5.20;1.00
24148;DHT22;12309;51.450;-2.624;2024-01-15T00:04:13;5.30;1.00
24148;DHT22;12309;51.450;-2.624;2024-01-15T00:06:39;5.20;1.00
24148;DHT22;12309;51.450;-2.624;2024-01-15T00:09:04;5.00;1.00
24148;DHT22;12309;51.450;-2.624;2024-01-15T00:11:32;5.10;1.00
24148;DHT22;12309;51.450;-2.624;2024-01-15T00:13:57;5.20;1.00
24148;DHT22;12309;51.450;-2.624;2024-01-15T00:16:23;5.20;76.30
24148;DHT22;12309;51.450;-2.624;2024-01-15T00:18:49;5.20;99.90
24148;DHT22;12309;51.450;-2.624;2024-01-15T00:21:15;5.10;99.90
24148;DHT22;12309;51.450;-2.624;2024-01-15T00:23:44;5.10;99.90
24148;DHT22;12309;51.450;-2.624;2024-01-15T00:28:37;4.90;1.00
24148;DHT22;12309;51.450;-2.624;2024-01-15T00:31:06;5.00;99.90
24148;DHT22;12309;51.450;-2.624;2024-01-15T00:33:32;5.00;99.90
24148;DHT22;12309;51.450;-2.624;2024-01-15T00:35:57;5.00;1.00
24148;DHT22;12309;51.450;-2.624;2024-01-15T00:38:23;5.00;1.00
24148;DHT22;12309;51.450;-2.624;2024-01-15T00:40:49;5.00;1.00
24148;DHT22;12309;51.450;-2.624;2024-01-15T00:43:14;4.90;1.00
24148;DHT22;12309;51.450;-2.624;2024-01-15T00:45:40;4.90;1.00
24148;DHT22;12309;51.450;-2.624;2024-01-15T00:48:06;4.90;1.00
24148;DHT22;12309;51.450;-2.624;2024-01-15T00:50:32;4.90;1.00
24148;DHT22;12309;51.450;-2.624;2024-01-15T00:52:57;4.90;1.00
24148;DHT22;12309;51.450;-2.624;2024-01-15T00:55:23;4.90;1.00
24148;DHT22;12309;51.450;-2.624;2024-01-15T00:57:49;4.90;1.00
24148;DHT22;12309;51.450;-2.624;2024-01-15T01:00:14;4.90;1.00
24148;DHT22;12309;51.450;-2.624;2024-01-15T01:02:40;4.90;1.00
24148;DHT22;12309;51.450;-2.624;2024-01-15T01:05:06;4.80;1.00
24148;DHT22;12309;51.450;-2.624;2024-01-15T01:07:32;4.80;1.00
24148;DHT22;12309;51.450;-2.624;2024-01-15T01:09:57;4.80;1.00
24148;DHT22;12309;51.450;-2.624;2024-01-15T01:12:23;4.60;1.00
24148;DHT22;12309;51.450;-2.624;2024-01-15T01:14:49;4.60;1.00
24148;DHT22;12309;51.450;-2.624;2024-01-15T01:17:14;4.80;76.50
24148;DHT22;12309;51.450;-2.624;2024-01-15T01:19:40;4.80;46.90
24148;DHT22;12309;51.450;-2.624;2024-01-15T01:22:05;4.80;99.90
24148;DHT22;12309;51.450;-2.624;2024-01-15T01:24:31;4.80;1.00
24148;DHT22;12309;51.450;-2.624;2024-01-15T01:26:57;4.30;1.00
24148;DHT22;12309;51.450;-2.624;2024-01-15T01:29:22;4.80;1.00
24148;DHT22;12309;51.450;-2.624;2024-01-15T01:31:48;4.80;1.00
24148;DHT22;12309;51.450;-2.624;2024-01-15T01:34:15;4.90;1.00
24148;DHT22;12309;51.450;-2.624;2024-01-15T01:36:44;4.90;1.00
24148;DHT22;12309;51.450;-2.624;2024-01-15T01:39:10;4.90;1.00
24148;DHT22;12309;51.450;-2.624;2024-01-15T01:41:36;4.90;1.00
24148;DHT22;12309;51.450;-2.624;2024-01-15T01:44:02;7.00;1.00
24148;DHT22;12309;51.450;-2.624;2024-01-15T01:46:27;4.90;1.00
24148;DHT22;12309;51.450;-2.624;2024-01-15T01:48:55;4.80;99.90
24148;DHT22;12309;51.450;-2.624;2024-01-15T01:51:23;4.80;99.90
24148;DHT22;12309;51.450;-2.624;2024-01-15T01:53:50;4.80;99.90
24148;DHT22;12309;51.450;-2.624;2024-01-15T01:56:16;4.70;99.90
24148;DHT22;12309;51.450;-2.624;2024-01-15T01:58:43;4.30;1.00
24148;DHT22;12309;51.450;-2.624;2024-01-15T02:01:11;5.40;1.00
24148;DHT22;12309;51.450;-2.624;2024-01-15T02:03:37;4.50;1.00
24148;DHT22;12309;51.450;-2.624;2024-01-15T02:06:03;5.10;1.00
24148;DHT22;12309;51.450;-2.624;2024-01-15T02:08:30;3.00;1.00
24148;DHT22;12309;51.450;-2.624;2024-01-15T02:10:56;3.90;1.00
24148;DHT22;12309;51.450;-2.624;2024-01-15T02:15:47;4.50;42.80
24148;DHT22;12309;51.450;-2.624;2024-01-15T02:20:39;4.40;99.90
24148;DHT22;12309;51.450;-2.624;2024-01-15T02:23:14;4.30;99.90
24148;DHT22;12309;51.450;-2.624;2024-01-15T02:25:45;4.30;99.90
24148;DHT22;12309;51.450;-2.624;2024-01-15T02:28:12;4.30;99.90
24148;DHT22;12309;51.450;-2.624;2024-01-15T02:30:39;4.30;99.90
24148;DHT22;12309;51.450;-2.624;2024-01-15T02:33:06;4.40;99.90
24148;DHT22;12309;51.450;-2.624;2024-01-15T02:35:32;4.30;99.90
24148;DHT22;12309;51.450;-2.624;2024-01-15T02:37:58;4.20;99.90
24148;DHT22;12309;51.450;-2.624;2024-01-15T02:40:24;4.00;99.90
24148;DHT22;12309;51.450;-2.624;2024-01-15T02:42:50;4.20;99.90
24148;DHT22;12309;51.450;-2.624;2024-01-15T02:45:16;4.20;99.90
24148;DHT22;12309;51.450;-2.624;2024-01-15T02:47:42;4.20;99.90
24148;DHT22;12309;51.450;-2.624;2024-01-15T02:52:33;4.20;99.90
24148;DHT22;12309;51.450;-2.624;2024-01-15T02:54:59;3.70;99.90
24148;DHT22;12309;51.450;-2.624;2024-01-15T02:57:24;3.50;99.90
24148;DHT22;12309;51.450;-2.624;2024-01-15T02:59:50;3.90;99.90
24148;DHT22;12309;51.450;-2.624;2024-01-15T03:02:16;3.90;99.90
24148;DHT22;12309;51.450;-2.624;2024-01-15T03:04:44;3.90;99.90
24148;DHT22;12309;51.450;-2.624;2024-01-15T03:07:10;3.80;99.90
24148;DHT22;12309;51.450;-2.624;2024-01-15T03:09:36;3.70;99.90
24148;DHT22;12309;51.450;-2.624;2024-01-15T03:12:02;3.60;99.90
24148;DHT22;12309;51.450;-2.624;2024-01-15T03:14:27;3.50;99.90
24148;DHT22;12309;51.450;-2.624;2024-01-15T03:16:53;3.20;99.90
24148;DHT22;12309;51.450;-2.624;2024-01-15T03:19:19;3.50;99.90
24148;DHT22;12309;51.450;-2.624;2024-01-15T03:21:45;3.30;99.90
24148;DHT22;12309;51.450;-2.624;2024-01-15T03:24:11;3.30;99.90
24148;DHT22;12309;51.450;-2.624;2024-01-15T03:26:37;3.20;99.90
24148;DHT22;12309;51.450;-2.624;2024-01-15T03:29:02;3.30;99.90
24148;DHT22;12309;51.450;-2.624;2024-01-15T03:31:28;3.20;99.90
24148;DHT22;12309;51.450;-2.624;2024-01-15T03:33:54;3.30;99.90
24148;DHT22;12309;51.450;-2.624;2024-01-15T03:36:19;3.30;99.90
24148;DHT22;12309;51.450;-2.624;2024-01-15T03:38:45;3.30;99.90
24148;DHT22;12309;51.450;-2.624;2024-01-15T03:41:11;3.40;99.90
24148;DHT22;12309;51.450;-2.624;2024-01-15T03:43:36;3.40;99.90
24148;DHT22;12309;51.450;-2.624;2024-01-15T03:46:02;3.30;99.90
24148;DHT22;12309;51.450;-2.624;2024-01-15T03:48:28;3.30;99.90
24148;DHT22;12309;51.450;-2.624;2024-01-15T03:50:54;3.30;99.90
24148;DHT22;12309;51.450;-2.624;2024-01-15T03:53:19;3.30;99.90
24148;DHT22;12309;51.450;-2.624;2024-01-15T03:55:45;3.20;99.90
24148;DHT22;12309;51.450;-2.624;2024-01-15T03:58:11;3.20;99.90
24148;DHT22;12309;51.450;-2.624;2024-01-15T04:00:36;3.20;99.90
24148;DHT22;12309;51.450;-2.624;2024-01-15T04:05:28;3.10;99.90
24148;DHT22;12309;51.450;-2.624;2024-01-15T04:07:54;3.10;99.90
24148;DHT22;12309;51.450;-2.624;2024-01-15T04:10:20;3.10;99.90
24148;DHT22;12309;51.450;-2.624;2024-01-15T04:12:45;3.10;99.90
24148;DHT22;12309;51.450;-2.624;2024-01-15T04:15:12;3.20;99.90
24148;DHT22;12309;51.450;-2.624;2024-01-15T04:17:38;3.30;99.90
24148;DHT22;12309;51.450;-2.624;2024-01-15T04:20:04;3.40;99.90
24148;DHT22;12309;51.450;-2.624;2024-01-15T04:22:30;3.30;99.90
24148;DHT22;12309;51.450;-2.624;2024-01-15T04:24:56;3.20;99.90
24148;DHT22;12309;51.450;-2.624;2024-01-15T04:27:21;3.30;99.90
24148;DHT22;12309;51.450;-2.624;2024-01-15T04:29:47;3.20;99.90
24148;DHT22;12309;51.450;-2.624;2024-01-15T04:32:13;3.20;99.90
24148;DHT22;12309;51.450;-2.624;2024-01-15T04:34:38;3.10;99.90
24148;DHT22;12309;51.450;-2.624;2024-01-15T04:37:04;3.30;99.90
24148;DHT22;12309;51.450;-2.624;2024-01-15T04:39:30;3.00;99.90
24148;DHT22;12309;51.450;-2.624;2024-01-15T04:41:55;3.00;99.90
24148;DHT22;12309;51.450;-2.624;2024-01-15T04:44:21;2.90;99.90
24148;DHT22;12309;51.450;-2.624;2024-01-15T04:46:46;2.80;99.90
24148;DHT22;12309;51.450;-2.624;2024-01-15T04:49:12;3.00;99.90
24148;DHT22;12309;51.450;-2.624;2024-01-15T04:51:38;3.00;99.90
24148;DHT22;12309;51.450;-2.624;2024-01-15T04:54:04;2.90;99.90
24148;DHT22;12309;51.450;-2.624;2024-01-15T04:56:29;3.00;99.90
24148;DHT22;12309;51.450;-2.624;2024-01-15T04:58:55;2.90;99.90
24148;DHT22;12309;51.450;-2.624;2024-01-15T05:01:21;2.60;99.90
24148;DHT22;12309;51.450;-2.624;2024-01-15T05:03:46;2.80;99.90
24148;DHT22;12309;51.450;-2.624;2024-01-15T05:06:12;2.50;99.90
24148;DHT22;12309;51.450;-2.624;2024-01-15T05:08:38;2.50;99.90
24148;DHT22;12309;51.450;-2.624;2024-01-15T05:11:03;2.50;99.90
24148;DHT22;12309;51.450;-2.624;2024-01-15T05:13:29;2.40;99.90
24148;DHT22;12309;51.450;-2.624;2024-01-15T05:15:55;2.50;99.90
24148;DHT22;12309;51.450;-2.624;2024-01-15T05:18:20;2.30;99.90
24148;DHT22;12309;51.450;-2.624;2024-01-15T05:23:12;2.30;99.90
24148;DHT22;12309;51.450;-2.624;2024-01-15T05:25:38;2.30;99.90
24148;DHT22;12309;51.450;-2.624;2024-01-15T05:28:05;2.20;99.90
24148;DHT22;12309;51.450;-2.624;2024-01-15T05:30:30;2.30;99.90
24148;DHT22;12309;51.450;-2.624;2024-01-15T05:32:56;2.20;99.90
24148;DHT22;12309;51.450;-2.624;2024-01-15T05:35:23;2.20;99.90
24148;DHT22;12309;51.450;-2.624;2024-01-15T05:37:48;2.10;99.90
24148;DHT22;12309;51.450;-2.624;2024-01-15T05:40:14;2.00;99.90
24148;DHT22;12309;51.450;-2.624;2024-01-15T05:42:41;1.80;99.90
24148;DHT22;12309;51.450;-2.624;2024-01-15T05:45:07;1.90;99.90
24148;DHT22;12309;51.450;-2.624;2024-01-15T05:47:33;1.70;99.90
24148;DHT22;12309;51.450;-2.624;2024-01-15T05:50:01;1.70;99.90
24148;DHT22;12309;51.450;-2.624;2024-01-15T05:52:27;1.70;99.90
24148;DHT22;12309;51.450;-2.624;2024-01-15T05:54:53;1.60;99.90
24148;DHT22;12309;51.450;-2.624;2024-01-15T05:57:19;1.60;99.90
24148;DHT22;12309;51.450;-2.624;2024-01-15T05:59:44;1.30;99.90
24148;DHT22;12309;51.450;-2.624;2024-01-15T06:02:10;1.10;99.90
24148;DHT22;12309;51.450;-2.624;2024-01-15T06:04:36;1.60;99.90
24148;DHT22;12309;51.450;-2.624;2024-01-15T06:07:02;1.50;99.90
24148;DHT22;12309;51.450;-2.624;2024-01-15T06:09:28;1.40;99.90
24148;DHT22;12309;51.450;-2.624;2024-01-15T06:11:54;1.40;99.90
24148;DHT22;12309;51.450;-2.624;2024-01-15T06:14:20;1.40;99.90
24148;DHT22;12309;51.450;-2.624;2024-01-15T06:16:46;1.20;99.90
24148;DHT22;12309;51.450;-2.624;2024-01-15T06:19:11;1.10;99.90
24148;DHT22;12309;51.450;-2.624;2024-01-15T06:21:37;1.00;99.90
24148;DHT22;12309;51.450;-2.624;2024-01-15T06:26:29;1.20;99.90
24148;DHT22;12309;51.450;-2.624;2024-01-15T06:28:55;1.00;99.90
24148;DHT22;12309;51.450;-2.624;2024-01-15T06:31:21;1.00;99.90
24148;DHT22;12309;51.450;-2.624;2024-01-15T06:33:46;0.90;99.90
24148;DHT22;12309;51.450;-2.624;2024-01-15T06:36:13;1.00;99.90
24148;DHT22;12309;51.450;-2.624;2024-01-15T06:38:39;1.00;99.90
24148;DHT22;12309;51.450;-2.624;2024-01-15T06:41:05;1.10;99.90
24148;DHT22;12309;51.450;-2.624;2024-01-15T06:43:31;1.30;99.90
24148;DHT22;12309;51.450;-2.624;2024-01-15T06:45:56;1.20;99.90
24148;DHT22;12309;51.450;-2.624;2024-01-15T06:48:22;1.20;99.90
24148;DHT22;12309;51.450;-2.624;2024-01-15T06:50:48;1.10;99.90
24148;DHT22;12309;51.450;-2.624;2024-01-15T06:53:14;1.10;99.90
24148;DHT22;12309;51.450;-2.624;2024-01-15T06:55:39;1.10;99.90
24148;DHT22;12309;51.450;-2.624;2024-01-15T06:58:05;1.20;99.90
24148;DHT22;12309;51.450;-2.624;2024-01-15T07:00:31;1.00;99.90
24148;DHT22;12309;51.450;-2.624;2024-01-15T07:02:57;0.70;99.90
24148;DHT22;12309;51.450;-2.624;2024-01-15T07:05:23;0.80;99.90
24148;DHT22;12309;51.450;-2.624;2024-01-15T07:07:50;0.80;99.90
24148;DHT22;12309;51.450;-2.624;2024-01-15T07:10:15;0.80;99.90
24148;DHT22;12309;51.450;-2.624;2024-01-15T07:12:44;0.70;99.90
24148;DHT22;12309;51.450;-2.624;2024-01-15T07:15:10;0.80;99.90
24148;DHT22;12309;51.450;-2.624;2024-01-15T07:17:36;0.80;99.90
24148;DHT22;12309;51.450;-2.624;2024-01-15T07:20:06;0.70;99.90
24148;DHT22;12309;51.450;-2.624;2024-01-15T07:22:33;0.70;99.90
24148;DHT22;12309;51.450;-2.624;2024-01-15T07:24:59;0.60;99.90
24148;DHT22;12309;51.450;-2.624;2024-01-15T07:27:25;0.40;99.90
24148;DHT22;12309;51.450;-2.624;2024-01-15T07:29:50;0.50;99.90
24148;DHT22;12309;51.450;-2.624;2024-01-15T07:32:16;0.20;99.90
24148;DHT22;12309;51.450;-2.624;2024-01-15T07:34:42;0.40;99.90
24148;DHT22;12309;51.450;-2.624;2024-01-15T07:39:34;0.40;99.90
24148;DHT22;12309;51.450;-2.624;2024-01-15T07:44:26;0.20;99.90
24148;DHT22;12309;51.450;-2.624;2024-01-15T07:46:51;0.40;99.90
24148;DHT22;12309;51.450;-2.624;2024-01-15T07:49:17;0.50;99.90
24148;DHT22;12309;51.450;-2.624;2024-01-15T07:51:43;0.50;99.90
24148;DHT22;12309;51.450;-2.624;2024-01-15T07:54:11;0.50;99.90
24148;DHT22;12309;51.450;-2.624;2024-01-15T07:57:00;0.60;99.90
24148;DHT22;12309;51.450;-2.624;2024-01-15T07:59:27;0.60;99.90
24148;DHT22;12309;51.450;-2.624;2024-01-15T08:01:53;0.40;99.90
24148;DHT22;12309;51.450;-2.624;2024-01-15T08:04:19;0.50;99.90
24148;DHT22;12309;51.450;-2.624;2024-01-15T08:06:45;0.40;99.90
24148;DHT22;12309;51.450;-2.624;2024-01-15T08:09:12;0.40;99.90
24148;DHT22;12309;51.450;-2.624;2024-01-15T08:11:44;0.80;99.90
24148;DHT22;12309;51.450;-2.624;2024-01-15T08:14:10;0.50;99.90
24148;DHT22;12309;51.450;-2.624;2024-01-15T08:16:36;0.60;99.90
24148;DHT22;12309;51.450;-2.624;2024-01-15T08:19:02;0.70;99.90
24148;DHT22;12309;51.450;-2.624;2024-01-15T08:21:28;0.10;99.90
24148;DHT22;12309;51.450;-2.624;2024-01-15T08:23:56;0.80;99.90
24148;DHT22;12309;51.450;-2.624;2024-01-15T08:26:22;0.60;99.90
24148;DHT22;12309;51.450;-2.624;2024-01-15T08:28:48;0.50;99.90
24148;DHT22;12309;51.450;-2.624;2024-01-15T08:31:14;0.80;99.90
24148;DHT22;12309;51.450;-2.624;2024-01-15T08:33:39;0.60;99.90
24148;DHT22;12309;51.450;-2.624;2024-01-15T08:36:05;0.40;99.90
24148;DHT22;12309;51.450;-2.624;2024-01-15T08:38:31;0.70;99.90
24148;DHT22;12309;51.450;-2.624;2024-01-15T08:40:57;0.60;99.90
24148;DHT22;12309;51.450;-2.624;2024-01-15T08:43:24;0.60;99.90
24148;DHT22;12309;51.450;-2.624;2024-01-15T08:45:50;0.50;99.90
24148;DHT22;12309;51.450;-2.624;2024-01-15T08:48:16;0.40;99.90
24148;DHT22;12309;51.450;-2.624;2024-01-15T08:50:42;0.40;99.90
24148;DHT22;12309;51.450;-2.624;2024-01-15T08:55:37;1.00;99.90
24148;DHT22;12309;51.450;-2.624;2024-01-15T08:58:03;1.60;99.90
24148;DHT22;12309;51.450;-2.624;2024-01-15T09:00:29;2.20;99.90
24148;DHT22;12309;51.450;-2.624;2024-01-15T09:02:55;3.40;99.90
24148;DHT22;12309;51.450;-2.624;2024-01-15T09:05:22;3.50;99.90
24148;DHT22;12309;51.450;-2.624;2024-01-15T09:07:47;4.00;99.90
24148;DHT22;12309;51.450;-2.624;2024-01-15T09:10:13;4.20;99.90
24148;DHT22;12309;51.450;-2.624;2024-01-15T09:12:39;4.50;99.90
24148;DHT22;12309;51.450;-2.624;2024-01-15T09:15:05;4.50;99.90
24148;DHT22;12309;51.450;-2.624;2024-01-15T09:17:34;4.80;99.90
24148;DHT22;12309;51.450;-2.624;2024-01-15T09:20:00;5.10;99.90
24148;DHT22;12309;51.450;-2.624;2024-01-15T09:22:26;5.00;99.90
24148;DHT22;12309;51.450;-2.624;2024-01-15T09:24:52;5.00;99.90
24148;DHT22;12309;51.450;-2.624;2024-01-15T09:29:44;4.30;99.90
24148;DHT22;12309;51.450;-2.624;2024-01-15T09:32:11;4.60;99.90
24148;DHT22;12309;51.450;-2.624;2024-01-15T09:34:38;5.10;99.90
24148;DHT22;12309;51.450;-2.624;2024-01-15T09:39:30;6.10;99.90
24148;DHT22;12309;51.450;-2.624;2024-01-15T09:41:57;5.90;99.90
24148;DHT22;12309;51.450;-2.624;2024-01-15T09:44:23;7.10;99.90
24148;DHT22;12309;51.450;-2.624;2024-01-15T09:46:49;6.90;99.90
24148;DHT22;12309;51.450;-2.624;2024-01-15T09:49:18;6.40;1.00
24148;DHT22;12309;51.450;-2.624;2024-01-15T09:51:44;6.40;1.00
24148;DHT22;12309;51.450;-2.624;2024-01-15T09:54:10;6.80;1.00
24148;DHT22;12309;51.450;-2.624;2024-01-15T09:56:39;6.70;1.00
24148;DHT22;12309;51.450;-2.624;2024-01-15T09:59:05;6.40;1.00
24148;DHT22;12309;51.450;-2.624;2024-01-15T10:01:32;6.00;1.00
24148;DHT22;12309;51.450;-2.624;2024-01-15T10:03:58;5.90;1.00
24148;DHT22;12309;51.450;-2.624;2024-01-15T10:06:26;5.50;1.00
24148;DHT22;12309;51.450;-2.624;2024-01-15T10:08:54;5.60;1.00
24148;DHT22;12309;51.450;-2.624;2024-01-15T10:11:22;5.30;1.00
24148;DHT22;12309;51.450;-2.624;2024-01-15T10:13:48;5.40;1.00
24148;DHT22;12309;51.450;-2.624;2024-01-15T10:16:21;5.20;99.90
24148;DHT22;12309;51.450;-2.624;2024-01-15T10:18:48;5.00;99.90
24148;DHT22;12309;51.450;-2.624;2024-01-15T10:21:14;5.00;99.90
24148;DHT22;12309;51.450;-2.624;2024-01-15T10:23:39;5.00;99.90
24148;DHT22;12309;51.450;-2.624;2024-01-15T10:28:31;5.10;80.40
24148;DHT22;12309;51.450;-2.624;2024-01-15T10:30:58;5.40;1.00
24148;DHT22;12309;51.450;-2.624;2024-01-15T10:33:25;5.60;1.00
24148;DHT22;12309;51.450;-2.624;2024-01-15T10:35:54;5.60;99.90
24148;DHT22;12309;51.450;-2.624;2024-01-15T10:38:24;5.50;99.90
24148;DHT22;12309;51.450;-2.624;2024-01-15T10:40:53;5.60;99.90
24148;DHT22;12309;51.450;-2.624;2024-01-15T10:43:19;5.40;99.90
24148;DHT22;12309;51.450;-2.624;2024-01-15T10:45:46;5.50;1.00
24148;DHT22;12309;51.450;-2.624;2024-01-15T10:48:12;5.70;45.90
24148;DHT22;12309;51.450;-2.624;2024-01-15T10:50:38;6.40;1.00
24148;DHT22;12309;51.450;-2.624;2024-01-15T10:53:04;7.60;99.90
24148;DHT22;12309;51.450;-2.624;2024-01-15T10:55:33;8.70;1.00
24148;DHT22;12309;51.450;-2.624;2024-01-15T10:58:01;8.30;99.90
24148;DHT22;12309;51.450;-2.624;2024-01-15T11:05:21;8.20;1.00
24148;DHT22;12309;51.450;-2.624;2024-01-15T11:07:51;9.70;1.00
24148;DHT22;12309;51.450;-2.624;2024-01-15T11:10:52;11.00;1.00
24148;DHT22;12309;51.450;-2.624;2024-01-15T11:13:22;10.60;99.90
24148;DHT22;12309;51.450;-2.624;2024-01-15T11:16:09;10.00;1.00
24148;DHT22;12309;51.450;-2.624;2024-01-15T11:18:37;8.60;1.00
24148;DHT22;12309;51.450;-2.624;2024-01-15T11:23:50;10.10;1.00
24148;DHT22;12309;51.450;-2.624;2024-01-15T11:29:07;9.90;99.90
24148;DHT22;12309;51.450;-2.624;2024-01-15T11:34:06;10.00;99.90
24148;DHT22;12309;51.450;-2.624;2024-01-15T11:41:58;10.60;1.00
24148;DHT22;12309;51.450;-2.624;2024-01-15T11:44:24;12.70;99.90
24148;DHT22;12309;51.450;-2.624;2024-01-15T11:47:00;14.50;99.90
24148;DHT22;12309;51.450;-2.624;2024-01-15T11:52:11;15.00;1.00
24148;DHT22;12309;51.450;-2.624;2024-01-15T11:54:40;15.30;99.90
24148;DHT22;12309;51.450;-2.624;2024-01-15T11:57:11;16.30;1.00
24148;DHT22;12309;51.450;-2.624;2024-01-15T11:59:41;16.40;94.20
24148;DHT22;12309;51.450;-2.624;2024-01-15T12:02:07;17.30;99.90
24148;DHT22;12309;51.450;-2.624;2024-01-15T12:04:33;17.70;99.90
24148;DHT22;12309;51.450;-2.624;2024-01-15T12:06:58;15.70;1.00
24148;DHT22;12309;51.450;-2.624;2024-01-15T12:09:24;13.80;1.00
24148;DHT22;12309;51.450;-2.624;2024-01-15T12:12:00;16.40;1.00
24148;DHT22;12309;51.450;-2.624;2024-01-15T12:14:31;17.10;1.00
24148;DHT22;12309;51.450;-2.624;2024-01-15T12:16:57;17.70;1.00
24148;DHT22;12309;51.450;-2.624;2024-01-15T12:19:23;17.60;1.00
24148;DHT22;12309;51.450;-2.624;2024-01-15T12:21:51;17.40;1.00
24148;DHT22;12309;51.450;-2.624;2024-01-15T12:24:17;15.00;99.90
24148;DHT22;12309;51.450;-2.624;2024-01-15T12:26:43;15.70;1.00
24148;DHT22;12309;51.450;-2.624;2024-01-15T12:29:11;17.90;1.00
24148;DHT22;12309;51.450;-2.624;2024-01-15T12:31:37;19.40;1.00
24148;DHT22;12309;51.450;-2.624;2024-01-15T12:34:02;18.40;1.00
24148;DHT22;12309;51.450;-2.624;2024-01-15T12:36:31;18.30;1.00
24148;DHT22;12309;51.450;-2.624;2024-01-15T12:39:00;18.30;99.90
24148;DHT22;12309;51.450;-2.624;2024-01-15T12:41:25;17.80;1.00
24148;DHT22;12309;51.450;-2.624;2024-01-15T12:43:51;17.80;99.90
24148;DHT22;12309;51.450;-2.624;2024-01-15T12:46:17;18.10;1.00
24148;DHT22;12309;51.450;-2.624;2024-01-15T12:48:44;18.40;1.00
24148;DHT22;12309;51.450;-2.624;2024-01-15T12:51:10;18.30;1.00
24148;DHT22;12309;51.450;-2.624;2024-01-15T12:53:36;17.90;1.00
24148;DHT22;12309;51.450;-2.624;2024-01-15T12:56:01;17.30;1.00
24148;DHT22;12309;51.450;-2.624;2024-01-15T12:58:27;15.80;1.00
24148;DHT22;12309;51.450;-2.624;2024-01-15T13:00:53;15.60;1.00
24148;DHT22;12309;51.450;-2.624;2024-01-15T13:05:45;15.80;99.90
24148;DHT22;12309;51.450;-2.624;2024-01-15T13:08:11;14.70;22.20
24148;DHT22;12309;51.450;-2.624;2024-01-15T13:13:02;14.90;1.00
24148;DHT22;12309;51.450;-2.624;2024-01-15T13:15:28;16.60;99.90
24148;DHT22;12309;51.450;-2.624;2024-01-15T13:17:54;16.30;99.90
24148;DHT22;12309;51.450;-2.624;2024-01-15T13:20:19;17.20;1.00
24148;DHT22;12309;51.450;-2.624;2024-01-15T13:22:45;17.20;99.90
24148;DHT22;12309;51.450;-2.624;2024-01-15T13:25:11;18.30;1.00
24148;DHT22;12309;51.450;-2.624;2024-01-15T13:27:37;19.00;1.00
24148;DHT22;12309;51.450;-2.624;2024-01-15T13:30:06;17.60;1.00
24148;DHT22;12309;51.450;-2.624;2024-01-15T13:32:33;17.70;99.90
24148;DHT22;12309;51.450;-2.624;2024-01-15T13:34:59;18.00;98.60
24148;DHT22;12309;51.450;-2.624;2024-01-15T13:37:25;15.50;1.00
24148;DHT22;12309;51.450;-2.624;2024-01-15T13:39:51;15.30;55.10
24148;DHT22;12309;51.450;-2.624;2024-01-15T13:42:20;14.00;1.00
24148;DHT22;12309;51.450;-2.624;2024-01-15T13:44:48;11.30;99.90
24148;DHT22;12309;51.450;-2.624;2024-01-15T13:47:14;10.20;99.90
24148;DHT22;12309;51.450;-2.624;2024-01-15T13:49:40;10.10;56.00
24148;DHT22;12309;51.450;-2.624;2024-01-15T13:52:05;9.70;14.20
24148;DHT22;12309;51.450;-2.624;2024-01-15T13:54:31;9.70;27.70
24148;DHT22;12309;51.450;-2.624;2024-01-15T13:59:24;11.10;1.00
24148;DHT22;12309;51.450;-2.624;2024-01-15T14:01:50;12.00;1.00
24148;DHT22;12309;51.450;-2.624;2024-01-15T14:04:16;10.00;1.00
24148;DHT22;12309;51.450;-2.624;2024-01-15T14:06:41;12.00;1.00
24148;DHT22;12309;51.450;-2.624;2024-01-15T14:09:07;11.30;1.00
24148;DHT22;12309;51.450;-2.624;2024-01-15T14:11:36;11.20;1.00
24148;DHT22;12309;51.450;-2.624;2024-01-15T14:14:03;11.50;1.00
24148;DHT22;12309;51.450;-2.624;2024-01-15T14:16:28;10.40;1.00
24148;DHT22;12309;51.450;-2.624;2024-01-15T14:18:54;10.40;1.00
24148;DHT22;12309;51.450;-2.624;2024-01-15T14:21:19;10.10;1.00
24148;DHT22;12309;51.450;-2.624;2024-01-15T14:23:45;9.80;1.00
24148;DHT22;12309;51.450;-2.624;2024-01-15T14:28:37;10.00;1.00
24148;DHT22;12309;51.450;-2.624;2024-01-15T14:31:04;9.80;1.00
24148;DHT22;12309;51.450;-2.624;2024-01-15T14:33:31;10.80;99.90
24148;DHT22;12309;51.450;-2.624;2024-01-15T14:35:57;10.80;1.00
24148;DHT22;12309;51.450;-2.624;2024-01-15T14:38:22;10.70;1.00
24148;DHT22;12309;51.450;-2.624;2024-01-15T14:40:49;10.10;1.00
24148;DHT22;12309;51.450;-2.624;2024-01-15T14:43:15;9.50;1.00
24148;DHT22;12309;51.450;-2.624;2024-01-15T14:48:06;9.80;1.00
24148;DHT22;12309;51.450;-2.624;2024-01-15T14:50:32;9.40;1.00
24148;DHT22;12309;51.450;-2.624;2024-01-15T14:52:58;10.20;1.00
24148;DHT22;12309;51.450;-2.624;2024-01-15T14:55:23;9.60;1.00
24148;DHT22;12309;51.450;-2.624;2024-01-15T14:57:49;9.40;99.90
24148;DHT22;12309;51.450;-2.624;2024-01-15T15:00:16;9.80;1.00
24148;DHT22;12309;51.450;-2.624;2024-01-15T15:02:42;9.70;1.00
24148;DHT22;12309;51.450;-2.624;2024-01-15T15:05:09;9.50;14.70
24148;DHT22;12309;51.450;-2.624;2024-01-15T15:07:35;9.10;1.00
24148;DHT22;12309;51.450;-2.624;2024-01-15T15:10:04;8.70;1.00
24148;DHT22;12309;51.450;-2.624;2024-01-15T15:12:30;8.60;99.90
24148;DHT22;12309;51.450;-2.624;2024-01-15T15:14:56;9.10;8.60
24148;DHT22;12309;51.450;-2.624;2024-01-15T15:17:22;9.40;99.90
24148;DHT22;12309;51.450;-2.624;2024-01-15T15:19:47;8.00;99.90
24148;DHT22;12309;51.450;-2.624;2024-01-15T15:22:13;9.30;99.90
24148;DHT22;12309;51.450;-2.624;2024-01-15T15:27:05;9.90;1.00
24148;DHT22;12309;51.450;-2.624;2024-01-15T15:29:32;10.00;99.90
24148;DHT22;12309;51.450;-2.624;2024-01-15T15:34:23;9.50;1.00
24148;DHT22;12309;51.450;-2.624;2024-01-15T15:36:49;9.50;99.90
24148;DHT22;12309;51.450;-2.624;2024-01-15T15:39:15;9.00;99.90
24148;DHT22;12309;51.450;-2.624;2024-01-15T15:41:44;9.20;99.90
24148;DHT22;12309;51.450;-2.624;2024-01-15T15:44:10;8.80;95.10
24148;DHT22;12309;51.450;-2.624;2024-01-15T15:46:37;8.40;99.90
24148;DHT22;12309;51.450;-2.624;2024-01-15T15:51:32;8.50;1.00
24148;DHT22;12309;51.450;-2.624;2024-01-15T15:53:58;8.60;1.00
24148;DHT22;12309;51.450;-2.624;2024-01-15T15:58:51;9.00;99.90
24148;DHT22;12309;51.450;-2.624;2024-01-15T16:03:43;9.60;99.90
24148;DHT22;12309;51.450;-2.624;2024-01-15T16:06:09;9.30;1.00
24148;DHT22;12309;51.450;-2.624;2024-01-15T16:08:34;9.10;1.00
24148;DHT22;12309;51.450;-2.624;2024-01-15T16:11:00;8.00;1.00
24148;DHT22;12309;51.450;-2.624;2024-01-15T16:20:44;6.50;99.90
24148;DHT22;12309;51.450;-2.624;2024-01-15T16:23:09;5.90;1.00
24148;DHT22;12309;51.450;-2.624;2024-01-15T16:25:35;6.10;1.00
24148;DHT22;12309;51.450;-2.624;2024-01-15T16:30:31;5.70;1.00
24148;DHT22;12309;51.450;-2.624;2024-01-15T16:37:48;5.50;1.00
24148;DHT22;12309;51.450;-2.624;2024-01-15T16:42:41;5.40;1.00
24148;DHT22;12309;51.450;-2.624;2024-01-15T16:45:06;5.30;1.00
24148;DHT22;12309;51.450;-2.624;2024-01-15T16:52:25;5.10;99.90
24148;DHT22;12309;51.450;-2.624;2024-01-15T16:57:16;4.80;1.00
24148;DHT22;12309;51.450;-2.624;2024-01-15T17:02:08;4.30;1.00
24148;DHT22;12309;51.450;-2.624;2024-01-15T17:04:34;4.20;1.00
24148;DHT22;12309;51.450;-2.624;2024-01-15T17:07:00;4.40;1.00
24148;DHT22;12309;51.450;-2.624;2024-01-15T17:11:51;3.90;99.90
24148;DHT22;12309;51.450;-2.624;2024-01-15T17:14:17;3.80;99.90